British Robin — MGSH7 — position and weather

sailwx.info

Track history (hours):
 
Tides and Currents Weather Stations Pressure Air Temp Water Temp Dewpoint Dewpoint Depression Visibility Wind Speed Wind Dir Waves Ship Positions

British Robin

Last reported at 2015-Aug-27 22:20 UTC. Time now 2015-Aug-29 00:20 UTC.
Position N 34°37' E 027°23'.

Length 251.5 m; beam 43.9 m; draft 15 m.

Type: Tanker. MMSI: 232156000.

Date/timePositionNaut miles runAvg speedWind from/ knotsBaromVisibWave heightAir tempDewpointWater temp
2015-Aug-27 22:20N 34°37' E 027°23'1012.5
2015-Aug-27 21:30N 34°39' E 027°36'1712.6
2015-Aug-27 20:09N 34°43' E 027°56'813.0
2015-Aug-27 19:33N 34°45' E 028°05'13312.6
2015-Aug-27 09:00N 35°18' E 030°42'   320 / 51010.210.8 31.523.627.1
2015-Aug-24 08:00N 36°12' E 035°06'63812.8 210 / 151005.4 5.4 1.530.524.928.0
2015-Aug-22 06:00N 34°36' E 022°12'26512.6 340 / 201012.610.8 1.026.521.125.6
2015-Aug-21 09:00N 35°24' E 016°54'11413.2 250 / 51017.510.8 28.523.526.7
2015-Aug-21 00:23N 35°49' E 014°37'1 1.0
2015-Aug-20 23:21N 35°49' E 014°36'0 0.0
2015-Aug-20 22:29N 35°49' E 014°36'0 0.0
2015-Aug-20 21:32N 35°49' E 014°36'0 0.0
2015-Aug-20 20:26N 35°49' E 014°36'0 0.1
2015-Aug-20 19:32N 35°49' E 014°36'0 0.1
2015-Aug-20 18:20N 35°49' E 014°36'0 0.1
2015-Aug-20 17:32N 35°49' E 014°36'0 0.1
2015-Aug-20 16:33N 35°49' E 014°36'2 2.4
2015-Aug-20 15:33N 35°49' E 014°39'9 9.2
2015-Aug-20 14:34N 35°58' E 014°37'1212.2
2015-Aug-20 13:33N 36°10' E 014°34'1312.9
2015-Aug-20 12:34N 36°15' E 014°20'1312.8
2015-Aug-20 11:33N 36°19' E 014°05'1312.9
2015-Aug-20 10:33N 36°22' E 013°49'1313.1
2015-Aug-20 09:33N 36°24' E 013°33'1413.4
2015-Aug-20 08:33N 36°27' E 013°16'1313.7
2015-Aug-20 07:33N 36°30' E 013°00'1514.7
2015-Aug-20 06:33N 36°37' E 012°44'1413.8
2015-Aug-20 05:33N 36°45' E 012°29'1413.7
2015-Aug-20 04:33N 36°52' E 012°15'5513.8
2015-Aug-20 00:32N 37°20' E 011°15'1613.9
2015-Aug-19 23:23N 37°28' E 010°58'1814.0
2015-Aug-19 22:07N 37°36' E 010°38'22013.6
2015-Aug-19 06:00N 37°48' E 006°00'   070 / 141014.810.8 0.525.519.325.8
Track history (hours):
 
Tides and Currents Weather Stations Pressure Air Temp Water Temp Dewpoint Dewpoint Depression Visibility Wind Speed Wind Dir Waves Ship Positions

British Robin

Last reported at 2015-Aug-27 22:20 UTC. Time now 2015-Aug-29 00:20 UTC.
Position N 34°37' E 027°23'.

Length 251.5 m; beam 43.9 m; draft 15 m.

Type: Tanker. MMSI: 232156000.

Date/timePositionNaut miles runAvg speedWind from/ knotsBaromVisibWave heightAir tempDewpointWater temp
2015-Aug-27 22:20N 34°37' E 027°23'1012.5
2015-Aug-27 21:30N 34°39' E 027°36'1712.6
2015-Aug-27 20:09N 34°43' E 027°56'813.0
2015-Aug-27 19:33N 34°45' E 028°05'13312.6
2015-Aug-27 09:00N 35°18' E 030°42'   320 / 51010.210.8 31.523.627.1
2015-Aug-24 08:00N 36°12' E 035°06'63812.8 210 / 151005.4 5.4 1.530.524.928.0
2015-Aug-22 06:00N 34°36' E 022°12'26512.6 340 / 201012.610.8 1.026.521.125.6
2015-Aug-21 09:00N 35°24' E 016°54'11413.2 250 / 51017.510.8 28.523.526.7
2015-Aug-21 00:23N 35°49' E 014°37'1 1.0
2015-Aug-20 23:21N 35°49' E 014°36'0 0.0
2015-Aug-20 22:29N 35°49' E 014°36'0 0.0
2015-Aug-20 21:32N 35°49' E 014°36'0 0.0
2015-Aug-20 20:26N 35°49' E 014°36'0 0.1
2015-Aug-20 19:32N 35°49' E 014°36'0 0.1
2015-Aug-20 18:20N 35°49' E 014°36'0 0.1
2015-Aug-20 17:32N 35°49' E 014°36'0 0.1
2015-Aug-20 16:33N 35°49' E 014°36'2 2.4
2015-Aug-20 15:33N 35°49' E 014°39'9 9.2
2015-Aug-20 14:34N 35°58' E 014°37'1212.2
2015-Aug-20 13:33N 36°10' E 014°34'1312.9
2015-Aug-20 12:34N 36°15' E 014°20'1312.8
2015-Aug-20 11:33N 36°19' E 014°05'1312.9
2015-Aug-20 10:33N 36°22' E 013°49'1313.1
2015-Aug-20 09:33N 36°24' E 013°33'1413.4
2015-Aug-20 08:33N 36°27' E 013°16'1313.7
2015-Aug-20 07:33N 36°30' E 013°00'1514.7
2015-Aug-20 06:33N 36°37' E 012°44'1413.8
2015-Aug-20 05:33N 36°45' E 012°29'1413.7
2015-Aug-20 04:33N 36°52' E 012°15'5513.8
2015-Aug-20 00:32N 37°20' E 011°15'1613.9
2015-Aug-19 23:23N 37°28' E 010°58'1814.0
2015-Aug-19 22:07N 37°36' E 010°38'22013.6
2015-Aug-19 06:00N 37°48' E 006°00'   070 / 141014.810.8 0.525.519.325.8

Dump ship's entire track history